createdAt,value
2022-08-23T00:02:23.862Z,98227.25
2022-08-23T00:05:07.527Z,98227.72
2022-08-23T00:07:42.015Z,98227.41
2022-08-23T00:10:11.588Z,98223.34
2022-08-23T00:12:39.274Z,98218.41
2022-08-23T00:15:08.901Z,98215.56
2022-08-23T00:17:36.941Z,98215.28
2022-08-23T00:20:08.759Z,98217.75
2022-08-23T00:22:37.781Z,98218.22
2022-08-23T00:25:07.196Z,98223.31
2022-08-23T00:27:33.980Z,98225.91
2022-08-23T00:30:01.067Z,98224.75
2022-08-23T00:32:31.352Z,98224.97
2022-08-23T00:35:00.669Z,98228.19
2022-08-23T00:37:29.084Z,98219.47
2022-08-23T00:39:55.790Z,98223.56
2022-08-23T00:42:42.085Z,98218.66
2022-08-23T00:45:32.211Z,98220.00
2022-08-23T00:47:59.520Z,98225.63
2022-08-23T00:50:26.545Z,98222.72
2022-08-23T00:52:59.167Z,98224.50
2022-08-23T00:55:27.266Z,98226.56
2022-08-23T00:57:54.814Z,98229.03
2022-08-23T01:00:22.598Z,98230.00
2022-08-23T01:02:51.044Z,98221.19
2022-08-23T01:05:19.193Z,98225.38
2022-08-23T01:07:52.808Z,98215.84
2022-08-23T01:10:33.187Z,98229.34
2022-08-23T01:13:14.818Z,98232.03
2022-08-23T01:15:47.836Z,98222.94
2022-08-23T01:18:17.672Z,98222.72
2022-08-23T01:21:13.464Z,98221.25
2022-08-23T01:23:43.448Z,98216.59
2022-08-23T01:26:11.794Z,98226.00
2022-08-23T01:28:40.746Z,98234.19
2022-08-23T01:31:09.054Z,98239.91
2022-08-23T01:33:38.524Z,98241.56
2022-08-23T01:36:09.873Z,98246.34
2022-08-23T01:38:38.223Z,98244.25
2022-08-23T01:41:09.569Z,98236.28
2022-08-23T01:43:37.010Z,98259.34
2022-08-23T01:46:14.950Z,98257.00
2022-08-23T01:48:41.937Z,98250.53
2022-08-23T01:51:09.385Z,98241.47
2022-08-23T01:53:36.372Z,98247.13
2022-08-23T01:56:05.220Z,98244.63
2022-08-23T01:58:36.497Z,98244.81
2022-08-23T02:01:04.675Z,98244.63
2022-08-23T02:03:34.276Z,98238.00
2022-08-23T02:06:01.128Z,98242.94
2022-08-23T02:08:46.539Z,98237.53
2022-08-23T02:11:16.871Z,98242.00
2022-08-23T02:13:46.438Z,98245.13
2022-08-23T02:16:25.608Z,98250.66
2022-08-23T02:18:56.522Z,98248.41
2022-08-23T02:21:24.592Z,98248.28
2022-08-23T02:23:51.585Z,98250.19
2022-08-23T02:26:19.067Z,98257.88
2022-08-23T02:28:50.025Z,98251.91
2022-08-23T02:31:16.967Z,98250.50
2022-08-23T02:33:46.229Z,98250.72
2022-08-23T02:36:14.240Z,98252.22
2022-08-23T02:38:41.376Z,98252.56
2022-08-23T02:41:09.299Z,98245.75
2022-08-23T02:43:40.954Z,98255.44
2022-08-23T02:46:08.068Z,98258.09
2022-08-23T02:48:36.267Z,98259.53
2022-08-23T02:51:07.790Z,98256.91
2022-08-23T02:53:35.572Z,98269.13
2022-08-23T02:56:06.448Z,98269.34
2022-08-23T02:58:47.825Z,98276.16
2022-08-23T03:01:30.798Z,98278.19
2022-08-23T03:04:08.051Z,98280.81
2022-08-23T03:06:36.368Z,98279.28
2022-08-23T03:09:05.226Z,98275.31
2022-08-23T03:11:32.817Z,98277.69
2022-08-23T03:14:01.142Z,98269.72
2022-08-23T03:16:28.715Z,98271.88
2022-08-23T03:18:55.568Z,98268.91
2022-08-23T03:21:22.709Z,98273.13
2022-08-23T03:23:50.380Z,98274.91
2022-08-23T03:26:17.847Z,98282.09
2022-08-23T03:28:45.774Z,98278.09
2022-08-23T03:31:15.155Z,98280.88
2022-08-23T03:33:52.624Z,98291.44
2022-08-23T03:36:20.215Z,98286.53
2022-08-23T03:38:56.178Z,98288.44
2022-08-23T03:41:23.445Z,98275.81
2022-08-23T03:43:50.574Z,98282.19
2022-08-23T03:46:24.604Z,98290.78
2022-08-23T03:49:00.016Z,98287.22
2022-08-23T03:51:31.873Z,98287.03
2022-08-23T03:54:01.155Z,98291.56
2022-08-23T03:56:29.764Z,98298.47
2022-08-23T03:58:58.786Z,98300.50
2022-08-23T04:01:28.527Z,98300.97
2022-08-23T04:03:59.909Z,98305.84
2022-08-23T04:06:29.551Z,98302.06
2022-08-23T04:08:56.498Z,98304.19
2022-08-23T04:11:23.782Z,98311.75
2022-08-23T04:13:57.240Z,98315.75
2022-08-23T04:16:24.202Z,98310.91
2022-08-23T04:18:51.148Z,98307.69
2022-08-23T04:21:22.490Z,98321.25
2022-08-23T04:23:49.686Z,98323.00
2022-08-23T04:28:44.566Z,98334.13
2022-08-23T04:33:42.657Z,98332.91
2022-08-23T04:36:12.478Z,98335.16
2022-08-23T04:38:39.272Z,98340.72
2022-08-23T04:41:26.506Z,98345.31
2022-08-23T04:43:56.885Z,98338.94
2022-08-23T04:46:24.641Z,98346.31
2022-08-23T04:48:54.343Z,98352.63
2022-08-23T04:51:22.224Z,98361.19
2022-08-23T04:53:49.330Z,98360.78
2022-08-23T04:56:35.468Z,98367.31
2022-08-23T04:59:03.330Z,98364.94
2022-08-23T05:01:31.624Z,98369.34
2022-08-23T05:04:00.169Z,98362.06
2022-08-23T05:06:28.708Z,98364.56
2022-08-23T05:08:55.436Z,98368.31
2022-08-23T05:11:22.680Z,98371.34
2022-08-23T05:13:49.808Z,98369.44
2022-08-23T05:16:17.418Z,98372.22
2022-08-23T05:18:53.580Z,98373.25
2022-08-23T05:21:22.793Z,98373.94
2022-08-23T05:23:50.975Z,98376.06
2022-08-23T05:26:23.386Z,98379.59
2022-08-23T05:28:50.675Z,98378.38
2022-08-23T05:31:23.807Z,98384.75
2022-08-23T05:33:57.217Z,98383.06
2022-08-23T05:36:31.145Z,98387.19
2022-08-23T05:38:58.533Z,98380.13
2022-08-23T05:41:37.006Z,98384.28
2022-08-23T05:44:06.740Z,98385.34
2022-08-23T05:46:34.740Z,98385.41
2022-08-23T05:49:30.756Z,98391.97
2022-08-23T05:51:58.370Z,98394.97
2022-08-23T05:54:29.266Z,98385.19
2022-08-23T05:57:31.109Z,98393.75
2022-08-23T05:59:57.781Z,98392.44
2022-08-23T06:02:24.492Z,98392.56
2022-08-23T06:04:55.539Z,98394.72
2022-08-23T06:07:24.114Z,98386.75
2022-08-23T06:09:50.901Z,98391.69
2022-08-23T06:12:18.548Z,98385.88
2022-08-23T06:14:45.200Z,98386.47
2022-08-23T06:17:11.966Z,98393.41
2022-08-23T06:19:38.757Z,98388.25
2022-08-23T06:22:31.408Z,98392.09
2022-08-23T06:24:58.247Z,98392.53
2022-08-23T06:27:42.567Z,98394.75
2022-08-23T06:30:11.894Z,98405.38
2022-08-23T06:32:46.495Z,98405.69
2022-08-23T06:35:39.956Z,98400.66
2022-08-23T06:38:22.234Z,98401.13
2022-08-23T06:41:12.973Z,98407.81
2022-08-23T06:43:52.218Z,98397.66
2022-08-23T06:46:33.017Z,98405.59
2022-08-23T06:49:00.778Z,98408.94
2022-08-23T06:51:32.079Z,98406.63
2022-08-23T06:54:21.734Z,98397.09
2022-08-23T06:57:06.936Z,98393.81
2022-08-23T06:59:51.064Z,98391.63
2022-08-23T07:02:44.264Z,98402.03
2022-08-23T07:05:35.621Z,98411.75
2022-08-23T07:08:11.870Z,98409.41
2022-08-23T07:10:39.302Z,98407.44
2022-08-23T07:13:06.079Z,98404.13
2022-08-23T07:15:32.879Z,98405.06
2022-08-23T07:18:00.364Z,98406.72
2022-08-23T07:20:29.325Z,98412.97
2022-08-23T07:22:56.202Z,98409.09
2022-08-23T07:25:23.286Z,98403.41
2022-08-23T07:27:55.145Z,98408.06
2022-08-23T07:30:22.419Z,98402.22
2022-08-23T07:32:50.974Z,98409.94
2022-08-23T07:35:22.275Z,98410.88
2022-08-23T07:37:51.600Z,98406.47
2022-08-23T07:40:20.739Z,98407.34
2022-08-23T07:42:49.894Z,98415.88
2022-08-23T07:45:17.914Z,98416.22
2022-08-23T07:47:50.621Z,98422.09
2022-08-23T07:50:18.298Z,98420.56
2022-08-23T07:52:46.348Z,98428.31
2022-08-23T07:55:14.103Z,98437.16
2022-08-23T07:58:09.984Z,98420.47
2022-08-23T08:01:11.912Z,98418.81
2022-08-23T08:03:46.843Z,98428.06
2022-08-23T08:06:33.886Z,98422.47
2022-08-23T08:09:01.033Z,98425.94
2022-08-23T08:11:34.885Z,98429.50
2022-08-23T08:14:08.205Z,98425.56
2022-08-23T08:16:41.219Z,98430.34
2022-08-23T08:19:11.996Z,98424.44
2022-08-23T08:21:57.297Z,98415.16
2022-08-23T08:24:44.374Z,98419.00
2022-08-23T08:27:12.937Z,98421.16
2022-08-23T08:29:40.705Z,98421.34
2022-08-23T08:32:08.992Z,98421.97
2022-08-23T08:34:41.555Z,98427.34
2022-08-23T08:37:09.670Z,98428.47
2022-08-23T08:39:36.459Z,98432.22
2022-08-23T08:42:07.794Z,98435.69
2022-08-23T08:44:58.110Z,98429.69
2022-08-23T08:47:40.946Z,98432.47
2022-08-23T08:50:16.681Z,98431.72
2022-08-23T08:52:54.712Z,98428.59
2022-08-23T08:55:47.510Z,98421.69
2022-08-23T08:58:28.997Z,98427.09
2022-08-23T09:00:56.855Z,98417.75
2022-08-23T09:03:26.447Z,98417.69
2022-08-23T09:06:05.915Z,98418.06
2022-08-23T09:08:41.209Z,98423.66
2022-08-23T09:11:22.351Z,98424.53
2022-08-23T09:13:53.544Z,98420.34
2022-08-23T09:16:38.695Z,98423.34
2022-08-23T09:19:06.421Z,98412.47
2022-08-23T09:22:02.739Z,98412.88
2022-08-23T09:24:31.442Z,98413.84
2022-08-23T09:27:09.989Z,98420.63
2022-08-23T09:29:39.427Z,98413.84
2022-08-23T09:32:27.235Z,98410.66
2022-08-23T09:35:06.499Z,98410.63
2022-08-23T09:37:47.808Z,98408.22
2022-08-23T09:40:34.302Z,98401.69
2022-08-23T09:43:27.975Z,98405.59
2022-08-23T09:46:01.276Z,98401.38
2022-08-23T09:48:43.186Z,98405.53
2022-08-23T09:51:31.096Z,98407.09
2022-08-23T09:54:21.608Z,98406.13
2022-08-23T09:56:57.262Z,98410.44
2022-08-23T09:59:27.986Z,98402.78
2022-08-23T10:02:04.525Z,98400.13
2022-08-23T10:04:37.340Z,98407.16
2022-08-23T10:07:25.998Z,98393.16
2022-08-23T10:10:12.555Z,98405.66
2022-08-23T10:12:39.331Z,98404.84
2022-08-23T10:15:09.474Z,98401.41
2022-08-23T10:18:07.211Z,98406.31
2022-08-23T10:20:56.724Z,98404.94
2022-08-23T10:23:55.837Z,98404.28
2022-08-23T10:26:35.277Z,98401.97
2022-08-23T10:29:28.561Z,98400.53
2022-08-23T10:32:21.401Z,98398.31
2022-08-23T10:35:49.483Z,98397.69
2022-08-23T10:38:28.463Z,98400.50
2022-08-23T10:41:22.153Z,98402.72
2022-08-23T10:44:24.117Z,98390.84
2022-08-23T10:47:15.932Z,98381.78
2022-08-23T10:49:44.022Z,98390.66
2022-08-23T10:52:17.460Z,98383.44
2022-08-23T10:54:59.502Z,98384.41
2022-08-23T10:57:34.183Z,98375.81
2022-08-23T11:00:11.804Z,98370.47
2022-08-23T11:02:56.093Z,98369.00
2022-08-23T11:05:30.667Z,98385.53
2022-08-23T11:08:11.330Z,98367.41
2022-08-23T11:10:39.194Z,98370.41
2022-08-23T11:13:21.369Z,98357.88
2022-08-23T11:16:07.213Z,98363.16
2022-08-23T11:18:36.829Z,98361.25
2022-08-23T11:21:26.224Z,98355.22
2022-08-23T11:23:58.429Z,98368.31
2022-08-23T11:26:26.603Z,98356.56
2022-08-23T11:28:56.839Z,98358.72
2022-08-23T11:31:27.312Z,98359.41
2022-08-23T11:34:04.963Z,98360.13
2022-08-23T11:36:34.492Z,98343.84
2022-08-23T11:39:09.198Z,98347.28
2022-08-23T11:41:56.370Z,98348.38
2022-08-23T11:44:35.464Z,98349.16
2022-08-23T11:47:06.549Z,98352.00
2022-08-23T11:49:57.494Z,98346.06
2022-08-23T11:52:37.502Z,98347.00
2022-08-23T11:55:07.098Z,98345.75
2022-08-23T11:58:05.781Z,98340.34
2022-08-23T12:01:11.039Z,98346.78
2022-08-23T12:03:59.846Z,98345.38
2022-08-23T12:06:58.232Z,98344.56
2022-08-23T12:09:25.876Z,98341.78
2022-08-23T12:11:55.422Z,98353.78
2022-08-23T12:14:31.344Z,98351.59
2022-08-23T12:17:05.410Z,98346.13
2022-08-23T12:19:40.395Z,98347.66
2022-08-23T12:22:52.602Z,98342.19
2022-08-23T12:25:22.198Z,98333.22
2022-08-23T12:27:55.658Z,98337.81
2022-08-23T12:30:29.895Z,98334.38
2022-08-23T12:33:30.993Z,98345.13
2022-08-23T12:36:16.614Z,98335.63
2022-08-23T12:39:19.718Z,98332.13
2022-08-23T12:42:11.531Z,98347.38
2022-08-23T12:44:38.591Z,98341.34
2022-08-23T12:47:24.409Z,98337.50
2022-08-23T12:50:32.672Z,98338.72
2022-08-23T12:53:27.982Z,98342.22
2022-08-23T12:56:07.973Z,98348.41
2022-08-23T12:58:38.661Z,98341.44
2022-08-23T13:01:20.403Z,98347.28
2022-08-23T13:03:51.107Z,98341.34
2022-08-23T13:06:34.381Z,98335.66
2022-08-23T13:09:07.653Z,98333.66
2022-08-23T13:11:38.105Z,98330.84
2022-08-23T13:14:24.707Z,98340.28
2022-08-23T13:16:52.543Z,98346.63
2022-08-23T13:19:31.459Z,98346.63
2022-08-23T13:22:21.995Z,98344.31
2022-08-23T13:25:24.548Z,98343.59
2022-08-23T13:27:46.920Z,98339.22
2022-08-23T13:30:14.014Z,98336.03
2022-08-23T13:32:52.296Z,98339.13
2022-08-23T13:35:29.190Z,98344.47
2022-08-23T13:38:00.688Z,98331.97
2022-08-23T13:40:32.234Z,98337.53
2022-08-23T13:43:09.898Z,98333.47
2022-08-23T13:45:46.219Z,98340.06
2022-08-23T13:48:33.910Z,98341.50
2022-08-23T13:51:24.692Z,98340.38
2022-08-23T13:53:53.272Z,98333.16
2022-08-23T13:56:21.222Z,98339.97
2022-08-23T13:59:01.117Z,98336.59
2022-08-23T14:01:29.048Z,98335.66
2022-08-23T14:03:56.390Z,98333.84
2022-08-23T14:06:23.992Z,98340.16
2022-08-23T14:08:51.371Z,98339.09
2022-08-23T14:11:18.290Z,98338.88
2022-08-23T14:13:47.812Z,98332.75
2022-08-23T14:16:40.151Z,98339.06
2022-08-23T14:19:54.317Z,98336.88
2022-08-23T14:21:57.601Z,98340.72
2022-08-23T14:24:26.967Z,98334.19
2022-08-23T14:26:54.933Z,98336.31
2022-08-23T14:29:23.457Z,98340.28
2022-08-23T14:31:51.855Z,98334.69
2022-08-23T14:34:19.127Z,98336.78
2022-08-23T14:39:32.751Z,98333.16
2022-08-23T14:41:59.694Z,98327.22
2022-08-23T14:44:31.586Z,98333.63
2022-08-23T14:47:00.282Z,98336.06
2022-08-23T14:49:27.158Z,98324.81
2022-08-23T14:51:54.289Z,98330.41
2022-08-23T14:54:24.743Z,98325.03
2022-08-23T14:56:53.363Z,98315.88
2022-08-23T14:59:20.579Z,98322.66
2022-08-23T15:01:49.951Z,98327.50
2022-08-23T15:04:19.888Z,98325.94
2022-08-23T15:07:14.080Z,98319.38
2022-08-23T15:09:34.191Z,98329.41
2022-08-23T15:14:48.491Z,98320.81
2022-08-23T15:17:15.383Z,98325.63
2022-08-23T15:19:42.123Z,98322.44
2022-08-23T15:22:21.359Z,98321.75
2022-08-23T15:24:49.460Z,98320.41
2022-08-23T15:27:17.913Z,98316.75
2022-08-23T15:29:44.690Z,98316.91
2022-08-23T15:32:12.739Z,98322.13
2022-08-23T15:34:45.690Z,98317.66
2022-08-23T15:37:14.112Z,98328.28
2022-08-23T15:39:42.314Z,98322.69
2022-08-23T15:42:09.688Z,98315.31
2022-08-23T15:44:36.735Z,98313.91
2022-08-23T15:47:05.633Z,98314.69
2022-08-23T15:49:36.307Z,98312.47
2022-08-23T15:52:04.440Z,98320.41
2022-08-23T15:54:31.509Z,98316.00
2022-08-23T15:56:58.557Z,98320.25
2022-08-23T15:59:25.732Z,98322.13
2022-08-23T16:01:52.616Z,98322.69
2022-08-23T16:04:19.449Z,98323.38
2022-08-23T16:06:46.974Z,98317.81
2022-08-23T16:09:24.000Z,98318.25
2022-08-23T16:11:51.711Z,98318.50
2022-08-23T16:14:18.690Z,98310.13
2022-08-23T16:16:48.476Z,98313.44
2022-08-23T16:19:16.844Z,98321.44
2022-08-23T16:21:45.042Z,98321.41
2022-08-23T16:24:11.829Z,98311.25
2022-08-23T16:26:41.920Z,98320.22
2022-08-23T16:29:10.984Z,98316.88
2022-08-23T16:31:39.723Z,98320.16
2022-08-23T16:34:09.750Z,98326.22
2022-08-23T16:36:37.092Z,98328.34
2022-08-23T16:39:05.287Z,98320.13
2022-08-23T16:41:32.349Z,98326.19
2022-08-23T16:43:59.309Z,98322.28
2022-08-23T16:46:26.663Z,98328.69
2022-08-23T16:48:53.427Z,98323.19
2022-08-23T16:51:20.324Z,98330.88
2022-08-23T16:54:01.739Z,98328.03
2022-08-23T16:56:31.569Z,98331.16
2022-08-23T16:58:58.623Z,98325.38
2022-08-23T17:01:26.068Z,98328.00
2022-08-23T17:03:52.884Z,98331.34
2022-08-23T17:06:19.863Z,98337.75
2022-08-23T17:08:46.701Z,98337.13
2022-08-23T17:11:16.894Z,98322.47
2022-08-23T17:13:44.148Z,98324.94
2022-08-23T17:16:11.311Z,98328.53
2022-08-23T17:18:38.736Z,98326.66
2022-08-23T17:21:06.696Z,98331.44
2022-08-23T17:23:33.434Z,98328.91
2022-08-23T17:26:06.235Z,98333.16
2022-08-23T17:28:32.985Z,98338.44
2022-08-23T17:30:59.669Z,98346.16
2022-08-23T17:33:26.448Z,98340.69
2022-08-23T17:35:53.297Z,98347.38
2022-08-23T17:38:20.862Z,98343.31
2022-08-23T17:40:47.692Z,98348.31
2022-08-23T17:43:14.404Z,98348.09
2022-08-23T17:45:47.501Z,98349.53
2022-08-23T17:48:16.401Z,98348.69
2022-08-23T17:50:43.952Z,98347.13
2022-08-23T17:53:11.319Z,98355.88
2022-08-23T17:55:39.238Z,98358.94
2022-08-23T17:58:08.578Z,98358.78
2022-08-23T18:00:39.369Z,98353.50
2022-08-23T18:03:06.810Z,98360.50
2022-08-23T18:05:34.742Z,98362.03
2022-08-23T18:08:01.580Z,98368.16
2022-08-23T18:10:29.964Z,98374.81
2022-08-23T18:12:57.932Z,98377.88
2022-08-23T18:15:24.775Z,98371.00
2022-08-23T18:17:52.201Z,98377.50
2022-08-23T18:20:23.366Z,98380.50
2022-08-23T18:22:50.155Z,98378.41
2022-08-23T18:25:17.063Z,98371.19
2022-08-23T18:28:03.083Z,98382.84
2022-08-23T18:30:30.153Z,98386.47
2022-08-23T18:32:57.643Z,98377.81
2022-08-23T18:35:25.934Z,98384.38
2022-08-23T18:37:54.349Z,98394.53
2022-08-23T18:40:21.307Z,98389.81
2022-08-23T18:42:48.374Z,98390.97
2022-08-23T18:45:15.227Z,98402.44
2022-08-23T18:47:41.992Z,98397.78
2022-08-23T18:50:11.192Z,98407.06
2022-08-23T18:52:38.253Z,98405.72
2022-08-23T18:55:06.102Z,98406.22
2022-08-23T18:57:33.449Z,98413.88
2022-08-23T19:00:00.171Z,98414.66
2022-08-23T19:02:27.056Z,98416.50
2022-08-23T19:04:54.887Z,98416.91
2022-08-23T19:07:21.637Z,98426.41
2022-08-23T19:09:48.357Z,98424.44
2022-08-23T19:12:15.092Z,98438.28
2022-08-23T19:14:41.840Z,98427.81
2022-08-23T19:17:08.532Z,98433.84
2022-08-23T19:19:35.862Z,98431.03
2022-08-23T19:22:03.656Z,98437.13
2022-08-23T19:24:30.818Z,98436.47
2022-08-23T19:26:57.654Z,98453.69
2022-08-23T19:29:24.353Z,98451.50
2022-08-23T19:31:51.168Z,98451.69
2022-08-23T19:34:20.084Z,98460.00
2022-08-23T19:36:51.761Z,98459.34
2022-08-23T19:39:26.013Z,98461.91
2022-08-23T19:42:02.791Z,98460.75
2022-08-23T19:44:32.602Z,98464.88
2022-08-23T19:46:59.345Z,98460.91
2022-08-23T19:49:26.045Z,98464.19
2022-08-23T19:51:53.180Z,98469.50
2022-08-23T19:54:20.394Z,98469.38
2022-08-23T19:56:50.368Z,98471.50
2022-08-23T19:59:30.318Z,98468.47
2022-08-23T20:01:58.780Z,98469.63
2022-08-23T20:04:27.574Z,98478.19
2022-08-23T20:06:55.175Z,98473.34
2022-08-23T20:09:22.865Z,98470.31
2022-08-23T20:11:52.529Z,98475.19
2022-08-23T20:14:20.677Z,98476.91
2022-08-23T20:16:48.892Z,98486.41
2022-08-23T20:19:16.131Z,98480.78
2022-08-23T20:21:43.178Z,98486.06
2022-08-23T20:24:11.640Z,98485.88
2022-08-23T20:26:43.032Z,98486.22
2022-08-23T20:29:17.180Z,98486.88
2022-08-23T20:31:53.251Z,98490.25
2022-08-23T20:34:20.746Z,98493.81
2022-08-23T20:36:48.088Z,98488.66
2022-08-23T20:39:19.211Z,98492.25
2022-08-23T20:41:48.598Z,98486.16
2022-08-23T20:44:15.647Z,98487.56
2022-08-23T20:46:44.058Z,98493.69
2022-08-23T20:49:11.611Z,98489.09
2022-08-23T20:51:38.730Z,98482.28
2022-08-23T20:54:09.787Z,98481.13
2022-08-23T20:56:37.733Z,98486.69
2022-08-23T20:59:06.372Z,98484.53
2022-08-23T21:01:33.537Z,98489.44
2022-08-23T21:04:01.105Z,98489.97
2022-08-23T21:06:30.321Z,98489.16
2022-08-23T21:08:59.979Z,98494.72
2022-08-23T21:11:28.304Z,98494.75
2022-08-23T21:13:56.499Z,98493.19
2022-08-23T21:16:24.351Z,98492.47
2022-08-23T21:18:54.423Z,98491.25
2022-08-23T21:21:24.316Z,98485.03
2022-08-23T21:23:51.363Z,98486.13
2022-08-23T21:26:18.863Z,98496.59
2022-08-23T21:28:45.785Z,98491.09
2022-08-23T21:31:15.527Z,98490.13
2022-08-23T21:33:44.501Z,98485.59
2022-08-23T21:36:12.928Z,98496.69
2022-08-23T21:38:39.963Z,98485.09
2022-08-23T21:41:11.247Z,98487.28
2022-08-23T21:43:39.204Z,98490.63
2022-08-23T21:46:07.291Z,98493.72
2022-08-23T21:48:34.662Z,98498.78
2022-08-23T21:51:01.471Z,98497.91
2022-08-23T21:53:28.167Z,98498.88
2022-08-23T21:55:54.876Z,98495.81
2022-08-23T21:58:21.559Z,98498.78
2022-08-23T22:00:48.315Z,98489.78
2022-08-23T22:03:15.355Z,98494.19
2022-08-23T22:05:44.053Z,98499.25
2022-08-23T22:08:14.352Z,98498.53
2022-08-23T22:10:48.144Z,98495.94
2022-08-23T22:13:26.650Z,98499.88
2022-08-23T22:15:53.508Z,98509.28
2022-08-23T22:18:20.782Z,98500.41
2022-08-23T22:20:47.590Z,98505.78
2022-08-23T22:23:14.414Z,98501.59
2022-08-23T22:25:41.240Z,98500.38
2022-08-23T22:28:08.176Z,98507.50
2022-08-23T22:30:34.913Z,98495.38
2022-08-23T22:33:01.915Z,98495.16
2022-08-23T22:35:28.958Z,98506.66
2022-08-23T22:38:12.642Z,98501.72
2022-08-23T22:40:51.985Z,98501.09
2022-08-23T22:43:20.026Z,98504.28
2022-08-23T22:45:55.551Z,98506.28
2022-08-23T22:48:22.983Z,98509.25
2022-08-23T22:50:49.817Z,98495.75
2022-08-23T22:53:17.818Z,98504.94
2022-08-23T22:55:51.026Z,98500.16
2022-08-23T22:58:18.315Z,98500.56
2022-08-23T23:00:46.083Z,98502.72
2022-08-23T23:03:12.742Z,98505.75
2022-08-23T23:05:39.727Z,98511.78
2022-08-23T23:08:25.333Z,98514.47
2022-08-23T23:10:52.083Z,98515.94
2022-08-23T23:13:20.875Z,98521.47
2022-08-23T23:15:47.586Z,98518.16
2022-08-23T23:18:14.352Z,98511.25
2022-08-23T23:20:41.048Z,98506.50
2022-08-23T23:23:14.655Z,98508.06
2022-08-23T23:25:43.223Z,98507.56
2022-08-23T23:28:10.255Z,98506.81
2022-08-23T23:30:37.078Z,98504.78
2022-08-23T23:33:04.617Z,98504.34
2022-08-23T23:35:31.537Z,98510.16
2022-08-23T23:37:58.444Z,98512.84
2022-08-23T23:40:26.766Z,98502.91
2022-08-23T23:42:54.106Z,98512.31
2022-08-23T23:45:21.199Z,98509.50
2022-08-23T23:47:48.006Z,98506.03
2022-08-23T23:50:15.014Z,98513.75
2022-08-23T23:52:42.351Z,98511.75
2022-08-23T23:55:12.156Z,98507.72
2022-08-23T23:57:39.208Z,98513.25
